Time;durP1;ratioP1;P1;durP2;ratioP2;P2;SDS_P1;SDS_P2;PMS_P1;PMS_P2;Temp;Humidity;BMP_temperature;BMP_pressure;BME280_temperature;BME280_humidity;BME280_pressure;Samples;Min_cycle;Max_cycle;Signal;HPM_P1;HPM_P2
2021/03/09 00:00:13;;;;;;;31.05;18.17;;;;;;;-3.28;81.22;96861.44;4944727;28;20053;-78
2021/03/09 00:02:41;;;;;;;29.52;16.10;;;;;;;-3.23;81.05;96873.09;4961650;28;20106;-78
2021/03/09 00:05:08;;;;;;;33.53;17.13;;;;;;;-3.40;81.20;96863.78;4943348;28;20046;-78
2021/03/09 00:07:34;;;;;;;34.65;19.30;;;;;;;-3.39;79.81;96865.41;4941427;29;20074;-78
2021/03/09 00:10:01;;;;;;;49.38;25.10;;;;;;;-3.33;80.80;96862.56;4924263;28;20058;-78
2021/03/09 00:12:27;;;;;;;41.90;21.63;;;;;;;-3.40;79.59;96861.22;4960987;28;20043;-79
2021/03/09 00:14:56;;;;;;;78.90;30.70;;;;;;;-3.08;79.99;96857.84;4946067;28;20052;-78
2021/03/09 00:17:31;;;;;;;40.60;20.08;;;;;;;-3.38;81.76;96869.63;4947807;28;20057;-79
2021/03/09 00:20:00;;;;;;;37.13;21.42;;;;;;;-3.34;81.55;96860.94;4960632;28;20169;-78
2021/03/09 00:22:26;;;;;;;39.83;20.33;;;;;;;-3.40;81.78;96851.88;4931399;28;20055;-78
2021/03/09 00:24:52;;;;;;;32.05;17.60;;;;;;;-3.57;82.11;96852.72;4947791;28;20047;-78
2021/03/09 00:27:18;;;;;;;26.02;14.80;;;;;;;-3.40;81.39;96856.97;4958983;28;20218;-78
2021/03/09 00:29:44;;;;;;;30.08;16.70;;;;;;;-3.56;81.76;96841.63;4963867;28;20038;-78
2021/03/09 00:32:10;;;;;;;33.30;16.70;;;;;;;-3.69;81.15;96849.06;4964000;28;20149;-79
2021/03/09 00:34:37;;;;;;;27.30;16.13;;;;;;;-3.55;81.11;96858.56;4963344;28;20119;-78
2021/03/09 00:37:04;;;;;;;24.42;14.23;;;;;;;-3.31;81.54;96848.03;4945695;28;20776;-79
2021/03/09 00:39:31;;;;;;;25.45;14.98;;;;;;;-3.43;81.21;96841.00;4960538;28;20053;-79
2021/03/09 00:41:58;;;;;;;29.17;15.67;;;;;;;-3.40;81.42;96846.78;4959576;28;20051;-78
2021/03/09 00:44:24;;;;;;;29.63;15.45;;;;;;;-3.62;82.29;96852.13;4940741;28;20119;-78
2021/03/09 00:46:51;;;;;;;24.60;15.18;;;;;;;-3.86;82.91;96838.09;4943396;28;20139;-79
2021/03/09 00:49:17;;;;;;;28.30;16.02;;;;;;;-3.85;83.32;96849.88;4965122;28;20463;-78
2021/03/09 00:51:44;;;;;;;29.65;16.33;;;;;;;-3.81;83.04;96848.84;4943300;28;20776;-79
2021/03/09 00:54:10;;;;;;;29.30;16.85;;;;;;;-3.95;83.89;96839.34;4960311;28;20038;-79
2021/03/09 00:56:37;;;;;;;27.55;14.90;;;;;;;-3.45;83.26;96847.91;4956508;28;20043;-79
2021/03/09 00:59:03;;;;;;;32.15;17.02;;;;;;;-3.45;82.70;96832.63;4943662;28;20687;-78
2021/03/09 01:01:29;;;;;;;26.50;15.88;;;;;;;-3.49;82.78;96825.16;4960485;28;20079;-79
2021/03/09 01:03:56;;;;;;;27.17;16.13;;;;;;;-3.61;82.58;96838.50;4942710;28;20062;-79
2021/03/09 01:06:22;;;;;;;25.35;15.20;;;;;;;-3.81;82.23;96820.84;4929845;28;20147;-78
2021/03/09 01:08:48;;;;;;;28.23;16.52;;;;;;;-3.61;82.47;96822.41;4959751;28;20035;-79
2021/03/09 01:11:14;;;;;;;27.92;15.68;;;;;;;-3.69;81.68;96823.59;4955913;28;20487;-78
2021/03/09 01:13:42;;;;;;;31.23;16.95;;;;;;;-3.91;83.67;96812.88;4959865;28;20046;-79
2021/03/09 01:16:08;;;;;;;27.48;16.38;;;;;;;-4.03;83.07;96824.47;4944869;28;20051;-79
2021/03/09 01:18:34;;;;;;;32.20;18.42;;;;;;;-4.00;83.13;96829.41;4941943;28;20134;-79
2021/03/09 01:21:01;;;;;;;30.95;17.65;;;;;;;-4.06;83.97;96837.34;4943421;28;20062;-79
2021/03/09 01:23:27;;;;;;;40.95;19.50;;;;;;;-3.99;82.95;96818.34;4940904;28;20073;-78
2021/03/09 01:25:56;;;;;;;29.58;16.23;;;;;;;-3.73;82.59;96823.84;4954917;28;20069;-77
2021/03/09 01:28:23;;;;;;;24.63;15.73;;;;;;;-3.85;82.95;96804.94;4930124;28;20054;-79
2021/03/09 01:30:50;;;;;;;26.17;15.63;;;;;;;-3.76;81.96;96806.19;4942089;28;20043;-79
2021/03/09 01:33:17;;;;;;;32.95;16.77;;;;;;;-3.63;82.23;96809.75;4947058;28;20047;-77
2021/03/09 01:35:43;;;;;;;31.77;17.48;;;;;;;-3.70;83.16;96808.44;4957959;28;20039;-77
2021/03/09 01:38:09;;;;;;;30.63;16.02;;;;;;;-3.59;83.06;96805.34;4945408;28;20058;-77
2021/03/09 01:40:35;;;;;;;28.20;16.50;;;;;;;-4.03;83.41;96791.41;4942431;28;20051;-77
2021/03/09 01:43:04;;;;;;;31.48;17.95;;;;;;;-3.82;82.85;96798.88;4944043;28;20070;-79
2021/03/09 01:45:35;;;;;;;32.42;16.88;;;;;;;-3.92;82.29;96783.25;4941165;28;20071;-79
2021/03/09 01:48:05;;;;;;;26.55;14.77;;;;;;;-3.84;82.31;96786.22;4942490;28;20055;-79
2021/03/09 01:50:36;;;;;;;36.65;20.42;;;;;;;-3.96;83.22;96782.59;4944644;28;20051;-79
2021/03/09 01:53:05;;;;;;;31.33;17.90;;;;;;;-4.01;82.72;96787.06;4962631;28;20051;-78
2021/03/09 01:55:32;;;;;;;27.17;16.30;;;;;;;-4.01;82.48;96776.91;4939920;28;20511;-79
2021/03/09 01:58:05;;;;;;;39.28;21.38;;;;;;;-4.10;83.55;96768.00;4942776;28;20511;-78
2021/03/09 02:00:31;;;;;;;32.60;17.50;;;;;;;-3.95;84.40;96776.59;4929768;28;20506;-78
2021/03/09 02:02:59;;;;;;;29.10;17.10;;;;;;;-4.01;83.83;96769.25;4944052;28;20046;-78
2021/03/09 02:05:27;;;;;;;30.73;18.33;;;;;;;-4.12;83.34;96772.34;4945997;28;21341;-78
2021/03/09 02:07:53;;;;;;;31.05;17.40;;;;;;;-3.95;82.63;96773.22;4941699;28;20055;-78
2021/03/09 02:10:21;;;;;;;31.40;18.48;;;;;;;-4.11;82.81;96763.84;4964070;28;20085;-78
2021/03/09 02:13:08;;;;;;;33.22;17.52;;;;;;;-4.32;83.76;96750.47;4963878;28;20134;-78
2021/03/09 02:15:44;;;;;;;35.45;19.58;;;;;;;-4.20;82.46;96749.00;4957495;28;20074;-78
2021/03/09 02:18:23;;;;;;;31.38;17.90;;;;;;;-4.16;83.28;96749.69;4945369;28;20138;-78
2021/03/09 02:21:14;;;;;;;36.00;20.90;;;;;;;-4.23;84.68;96756.81;4944336;28;20078;-79
2021/03/09 02:23:40;;;;;;;33.83;19.67;;;;;;;-4.23;84.19;96759.34;4962159;28;20134;-78
2021/03/09 02:26:35;;;;;;;37.33;20.30;;;;;;;-4.35;84.47;96763.28;4942504;28;20104;-79
2021/03/09 02:29:45;;;;;;;29.25;17.60;;;;;;;-4.13;83.36;96749.53;4938713;28;20129;-78
2021/03/09 02:32:20;;;;;;;32.40;18.33;;;;;;;-4.08;82.93;96745.06;4939120;28;20053;-78
2021/03/09 02:34:50;;;;;;;37.63;19.33;;;;;;;-4.06;82.95;96740.72;4951668;28;20050;-79
2021/03/09 02:37:17;;;;;;;34.88;18.13;;;;;;;-4.05;83.42;96747.44;4955618;28;20103;-78
2021/03/09 02:39:44;;;;;;;;;;;;;;;-4.10;82.95;96749.41;4957929;28;20049;-78
2021/03/09 02:42:16;;;;;;;35.75;18.80;;;;;;;-4.21;83.90;96733.81;4957842;28;19959;-78
2021/03/09 02:44:44;;;;;;;31.88;19.20;;;;;;;-4.27;83.24;96741.78;4940193;28;20079;-79
2021/03/09 02:47:14;;;;;;;29.98;17.98;;;;;;;-4.11;82.29;96735.03;4944573;28;20053;-78
2021/03/09 02:49:43;;;;;;;33.30;19.02;;;;;;;-4.23;82.37;96735.63;4942659;28;20058;-78
2021/03/09 02:52:21;;;;;;;32.67;19.23;;;;;;;-4.26;83.91;96728.97;4940220;29;20547;-78
2021/03/09 02:54:49;;;;;;;39.53;19.83;;;;;;;-4.37;83.25;96724.44;4944445;28;21267;-79
2021/03/09 02:57:19;;;;;;;43.03;21.77;;;;;;;-4.83;83.63;96733.44;4960119;28;20105;-78
2021/03/09 02:59:45;;;;;;;33.70;17.63;;;;;;;-4.39;83.40;96736.38;4943173;28;20043;-78
2021/03/09 03:02:12;;;;;;;33.13;17.87;;;;;;;-4.48;83.76;96726.69;4940076;28;20058;-79
2021/03/09 03:04:47;;;;;;;33.92;18.40;;;;;;;-4.80;85.03;96731.59;4957895;28;20432;-78
2021/03/09 03:07:14;;;;;;;32.17;18.08;;;;;;;-4.51;84.01;96729.34;4931321;28;20115;-79
2021/03/09 03:09:41;;;;;;;;;;;;;;;-4.32;84.09;96737.75;4941347;28;20050;-79
2021/03/09 03:12:10;;;;;;;33.15;16.92;;;;;;;-4.24;82.19;96736.53;4956166;28;20811;-79
2021/03/09 03:14:37;;;;;;;33.97;19.17;;;;;;;-4.66;84.74;96730.91;4927010;28;20106;-79
2021/03/09 03:17:04;;;;;;;42.45;19.73;;;;;;;-4.25;82.38;96747.59;4938792;28;20090;-79
2021/03/09 03:19:47;;;;;;;36.80;18.50;;;;;;;-4.42;83.28;96749.25;4942255;28;20103;-79
2021/03/09 03:22:17;;;;;;;29.63;17.20;;;;;;;-4.58;83.87;96745.81;4936879;28;20044;-79
2021/03/09 03:24:45;;;;;;;35.53;18.88;;;;;;;-4.75;83.89;96737.25;4960344;28;20047;-79
2021/03/09 03:27:14;;;;;;;;;;;;;;;-4.38;83.39;96743.13;4942383;28;20039;-78
2021/03/09 03:29:41;;;;;;;32.72;17.13;;;;;;;-4.55;83.40;96743.09;4959639;28;20020;-79
2021/03/09 03:32:08;;;;;;;36.38;20.17;;;;;;;-4.56;83.53;96733.84;4929474;28;20047;-79
2021/03/09 03:34:36;;;;;;;34.80;19.60;;;;;;;-4.37;83.34;96742.22;4944675;28;20464;-78
2021/03/09 03:37:02;;;;;;;38.90;20.90;;;;;;;-4.48;83.70;96747.00;4944295;28;20073;-78
2021/03/09 03:39:30;;;;;;;43.40;22.35;;;;;;;-4.78;84.30;96751.84;4946475;28;20074;-78
2021/03/09 03:41:56;;;;;;;33.75;19.05;;;;;;;-4.62;82.48;96746.84;4953373;28;20048;-78
2021/03/09 03:44:22;;;;;;;37.75;19.27;;;;;;;-4.59;83.17;96746.72;4956754;28;20774;-79
2021/03/09 03:46:49;;;;;;;44.13;22.13;;;;;;;-4.56;83.53;96734.66;4942395;28;20043;-79
2021/03/09 03:49:15;;;;;;;51.67;26.00;;;;;;;-4.45;84.20;96746.84;4957579;28;20305;-79
2021/03/09 03:51:47;;;;;;;35.97;20.45;;;;;;;-4.60;83.47;96750.13;4961313;28;20491;-78
2021/03/09 03:54:48;;;;;;;39.22;18.73;;;;;;;-4.55;82.79;96745.63;4944074;28;20039;-79
2021/03/09 03:57:31;;;;;;;35.03;18.92;;;;;;;-4.43;82.32;96722.19;4943661;28;20074;-78
2021/03/09 04:00:01;;;;;;;37.10;19.85;;;;;;;-4.61;83.25;96741.69;4947928;28;20142;-78
2021/03/09 04:02:28;;;;;;;40.28;20.70;;;;;;;-4.65;83.34;96727.50;4961232;28;20045;-79
2021/03/09 04:04:55;;;;;;;44.95;17.90;;;;;;;-4.69;83.28;96717.56;4944353;28;20047;-79
2021/03/09 04:07:25;;;;;;;35.22;18.17;;;;;;;-4.75;82.08;96727.09;4947833;28;20094;-78
2021/03/09 04:09:54;;;;;;;34.70;18.83;;;;;;;-4.79;82.00;96720.53;4943248;28;20071;-78
2021/03/09 04:12:23;;;;;;;42.67;19.95;;;;;;;-4.62;82.37;96719.72;4949982;28;20074;-78
2021/03/09 04:14:49;;;;;;;35.95;18.60;;;;;;;-4.65;81.59;96704.63;4928175;28;20047;-78
2021/03/09 04:17:18;;;;;;;36.35;19.85;;;;;;;-5.02;82.96;96713.16;4957846;28;20058;-78
2021/03/09 04:19:46;;;;;;;38.65;20.52;;;;;;;-4.96;83.29;96730.66;4959742;28;20403;-78
2021/03/09 04:22:13;;;;;;;;;;;;;;;-4.95;83.00;96733.13;4959564;28;20045;-78
2021/03/09 04:24:40;;;;;;;38.30;19.77;;;;;;;-5.06;83.83;96724.34;4946676;28;19922;-78
2021/03/09 04:27:20;;;;;;;40.58;21.52;;;;;;;-4.90;82.13;96732.91;4939547;28;20051;-78
2021/03/09 04:29:57;;;;;;;49.03;25.80;;;;;;;-4.74;83.44;96731.31;4961593;28;20086;-78
2021/03/09 04:32:25;;;;;;;45.28;22.65;;;;;;;-4.95;83.63;96720.44;4956202;28;20047;-79
2021/03/09 04:34:52;;;;;;;47.85;25.58;;;;;;;-4.79;82.63;96730.69;4941888;28;20065;-79
2021/03/09 04:37:34;;;;;;;48.05;23.88;;;;;;;-4.80;83.60;96728.22;4933615;28;20051;-79
2021/03/09 04:40:04;;;;;;;41.97;23.40;;;;;;;-4.75;82.45;96719.47;4931744;28;20306;-79
2021/03/09 04:42:30;;;;;;;45.90;23.55;;;;;;;-4.86;82.61;96714.09;4944460;28;20043;-79
2021/03/09 04:44:56;;;;;;;49.70;26.45;;;;;;;-4.90;83.80;96722.75;4963939;28;20044;-79
2021/03/09 04:47:24;;;;;;;47.78;23.40;;;;;;;-4.83;83.64;96729.19;4964109;28;20086;-78
2021/03/09 04:49:55;;;;;;;46.35;25.40;;;;;;;-4.99;83.88;96718.13;4966165;28;20054;-79
2021/03/09 04:52:24;;;;;;;46.78;24.52;;;;;;;-4.81;81.72;96729.09;4947803;28;20220;-79
2021/03/09 04:54:51;;;;;;;49.78;24.15;;;;;;;-4.91;83.16;96714.31;4946424;28;20044;-79
2021/03/09 04:57:17;;;;;;;46.03;23.00;;;;;;;-4.75;82.86;96732.19;4969075;28;20038;-78
2021/03/09 04:59:47;;;;;;;45.47;24.55;;;;;;;-4.77;82.68;96723.81;4965654;28;20078;-78
2021/03/09 05:02:13;;;;;;;48.40;25.70;;;;;;;-5.04;82.24;96723.38;4942045;28;20071;-78
2021/03/09 05:04:39;;;;;;;43.05;23.35;;;;;;;-5.17;83.64;96719.78;4949488;28;20050;-78
2021/03/09 05:07:05;;;;;;;41.17;23.17;;;;;;;-5.12;83.45;96717.88;4945316;28;20050;-78
2021/03/09 05:09:32;;;;;;;45.33;23.73;;;;;;;-5.01;82.07;96720.72;4966219;28;20035;-78
2021/03/09 05:12:01;;;;;;;43.72;23.77;;;;;;;-5.15;83.70;96731.50;4963750;28;20051;-78
2021/03/09 05:14:32;;;;;;;42.88;22.42;;;;;;;-5.04;82.35;96720.03;4965805;28;20047;-78
2021/03/09 05:16:59;;;;;;;43.72;21.30;;;;;;;-4.97;81.88;96711.25;4962241;28;20079;-79
2021/03/09 05:19:25;;;;;;;47.75;23.40;;;;;;;-5.22;83.01;96720.00;4947884;28;20606;-79
2021/03/09 05:21:55;;;;;;;39.95;21.02;;;;;;;-5.05;81.91;96726.84;4950823;28;20043;-78
2021/03/09 05:24:21;;;;;;;44.85;23.20;;;;;;;-5.05;82.81;96714.13;4946480;28;20047;-79
2021/03/09 05:26:48;;;;;;;46.47;23.80;;;;;;;-5.07;83.02;96708.31;4959890;28;20070;-74
2021/03/09 05:29:14;;;;;;;52.08;24.95;;;;;;;-5.26;83.46;96721.03;4968225;28;20098;-76
2021/03/09 05:31:40;;;;;;;58.53;26.13;;;;;;;-5.36;83.37;96724.88;4947234;28;20051;-78
2021/03/09 05:34:06;;;;;;;53.35;25.33;;;;;;;-5.30;83.66;96708.56;4958779;28;20062;-75
2021/03/09 05:36:33;;;;;;;54.30;26.73;;;;;;;-4.98;83.57;96719.75;4958890;28;20146;-76
2021/03/09 05:38:59;;;;;;;46.90;23.00;;;;;;;-5.07;82.05;96715.09;4945492;28;20051;-76
2021/03/09 05:41:25;;;;;;;54.17;24.70;;;;;;;-4.85;81.98;96710.66;4945380;28;20043;-75
2021/03/09 05:43:52;;;;;;;54.75;25.50;;;;;;;-5.02;83.18;96716.53;4946308;28;20051;-74
2021/03/09 05:46:19;;;;;;;43.88;21.95;;;;;;;-4.82;82.17;96710.53;4936537;28;20051;-75
2021/03/09 05:48:45;;;;;;;39.40;21.05;;;;;;;-4.84;82.35;96714.03;4963888;28;20050;-78
2021/03/09 05:51:11;;;;;;;40.30;20.85;;;;;;;-4.72;81.23;96706.66;4942424;28;20073;-78
2021/03/09 05:53:38;;;;;;;42.25;22.08;;;;;;;-4.66;80.73;96702.97;4958590;28;20070;-78
2021/03/09 05:56:04;;;;;;;45.55;22.17;;;;;;;-4.80;81.62;96718.88;4961192;28;20121;-78
2021/03/09 05:58:31;;;;;;;43.43;22.90;;;;;;;-4.81;83.08;96721.50;4962954;28;20398;-78
2021/03/09 06:01:00;;;;;;;50.50;23.63;;;;;;;-4.72;81.70;96704.09;4958078;28;20043;-77
2021/03/09 06:03:27;;;;;;;42.35;22.83;;;;;;;-4.65;81.47;96708.91;4945440;28;20075;-77
2021/03/09 06:05:53;;;;;;;48.27;23.93;;;;;;;-4.41;82.10;96717.84;4943433;28;20051;-76
2021/03/09 06:08:20;;;;;;;50.00;26.27;;;;;;;-4.41;81.97;96725.47;4938843;28;20293;-73
2021/03/09 06:10:49;;;;;;;47.55;24.33;;;;;;;-4.06;81.52;96729.69;4940112;28;20046;-72
2021/03/09 06:13:35;;;;;;;51.53;26.33;;;;;;;-4.09;80.54;96735.75;4936922;28;20150;-73
2021/03/09 06:16:01;;;;;;;50.35;25.10;;;;;;;-4.01;80.52;96732.84;4936033;28;20047;-74
2021/03/09 06:18:27;;;;;;;51.50;26.42;;;;;;;-3.96;80.61;96726.63;4956084;28;20364;-73
2021/03/09 06:21:08;;;;;;;48.87;25.47;;;;;;;-3.75;79.96;96721.34;4962411;28;20083;-73
2021/03/09 06:23:35;;;;;;;46.90;23.88;;;;;;;-3.69;79.92;96732.00;4938610;28;20297;-73
2021/03/09 06:26:03;;;;;;;54.42;25.85;;;;;;;-3.44;79.26;96737.56;4938612;28;20059;-72
2021/03/09 06:28:31;;;;;;;49.08;25.45;;;;;;;-3.21;79.51;96724.44;4943788;28;20074;-72
2021/03/09 06:30:59;;;;;;;;;;;;;;;-3.36;80.28;96741.34;4937922;28;20697;-71
2021/03/09 06:33:27;;;;;;;49.00;26.58;;;;;;;-3.11;80.43;96742.56;4954118;28;19930;-69
2021/03/09 06:35:55;;;;;;;54.25;27.42;;;;;;;-2.85;79.62;96736.09;4934970;28;20069;-73
2021/03/09 06:38:25;;;;;;;44.25;25.08;;;;;;;-2.68;78.72;96742.78;4956483;28;20047;-74
2021/03/09 06:41:23;;;;;;;53.60;29.25;;;;;;;-2.61;80.28;96744.09;4943315;28;20138;-76
2021/03/09 06:44:01;;;;;;;52.42;28.52;;;;;;;-2.30;78.90;96738.09;4917742;28;20143;-72
2021/03/09 06:46:28;;;;;;;45.60;26.30;;;;;;;-2.14;78.69;96743.16;4937512;28;20199;-72
2021/03/09 06:49:00;;;;;;;51.00;28.23;;;;;;;-2.27;77.87;96737.91;4937445;28;20063;-72
2021/03/09 06:51:35;;;;;;;56.65;30.73;;;;;;;-2.18;79.54;96735.72;4935567;28;20891;-73
2021/03/09 06:54:10;;;;;;;53.15;28.58;;;;;;;-1.73;78.21;96737.34;4950318;28;20094;-75
2021/03/09 06:56:42;;;;;;;58.17;32.88;;;;;;;-1.43;77.68;96744.09;4935931;28;20066;-74
2021/03/09 06:59:31;;;;;;;41.90;25.10;;;;;;;-1.33;76.49;96747.72;4950195;28;20077;-74
2021/03/09 07:02:07;;;;;;;46.78;24.67;;;;;;;-1.35;76.27;96738.53;4958157;28;20057;-74
2021/03/09 07:04:35;;;;;;;46.35;27.50;;;;;;;-1.54;77.42;96751.56;4952702;28;20129;-73
2021/03/09 07:07:02;;;;;;;45.67;26.17;;;;;;;-1.04;76.33;96751.06;4945568;28;20050;-73
2021/03/09 07:09:29;;;;;;;41.63;24.00;;;;;;;-0.89;75.51;96756.09;4938832;28;20680;-72
2021/03/09 07:12:01;;;;;;;45.03;26.25;;;;;;;-0.73;76.43;96753.44;4954094;28;20057;-72
2021/03/09 07:14:31;;;;;;;42.65;24.85;;;;;;;-0.56;74.84;96752.34;4941780;28;20223;-73
2021/03/09 07:17:01;;;;;;;39.78;23.50;;;;;;;-0.14;73.41;96737.72;4950454;28;20054;-73
2021/03/09 07:19:41;;;;;;;37.92;22.05;;;;;;;0.07;73.16;96753.41;4957039;28;20083;-73
2021/03/09 07:22:13;;;;;;;36.85;22.23;;;;;;;0.16;71.64;96751.03;4935254;28;20067;-75
2021/03/09 07:24:46;;;;;;;39.72;22.58;;;;;;;0.27;71.89;96755.44;4953074;28;20503;-70
2021/03/09 07:27:17;;;;;;;39.58;22.67;;;;;;;0.62;70.04;96754.81;4965326;28;20050;-73
2021/03/09 07:29:56;;;;;;;32.03;21.15;;;;;;;0.82;70.25;96756.81;4956208;28;20624;-73
2021/03/09 07:32:27;;;;;;;35.55;21.77;;;;;;;1.04;68.89;96750.22;4954993;28;20138;-73
2021/03/09 07:34:55;;;;;;;36.28;21.55;;;;;;;1.32;68.81;96754.22;4937439;28;20047;-73
2021/03/09 07:37:22;;;;;;;43.60;23.83;;;;;;;1.48;69.73;96763.38;4956000;28;20047;-74
2021/03/09 07:39:49;;;;;;;37.03;23.53;;;;;;;1.30;69.39;96747.56;4958979;28;20502;-73
2021/03/09 07:42:16;;;;;;;32.33;19.85;;;;;;;1.56;65.83;96754.19;4955271;28;20660;-73
2021/03/09 07:44:43;;;;;;;;;;;;;;;1.63;66.89;96747.72;4935873;28;20057;-71
2021/03/09 07:47:11;;;;;;;37.55;22.20;;;;;;;1.29;68.73;96749.31;4942750;28;19930;-73
2021/03/09 07:49:39;;;;;;;33.10;20.70;;;;;;;2.22;65.99;96754.50;4956459;28;20046;-74
2021/03/09 07:52:10;;;;;;;30.13;19.08;;;;;;;2.62;62.83;96751.50;4926360;28;20041;-72
2021/03/09 07:54:38;;;;;;;33.38;19.55;;;;;;;2.96;62.16;96753.22;4958804;28;20123;-71
2021/03/09 07:57:16;;;;;;;31.20;20.10;;;;;;;2.70;62.39;96753.47;4936747;28;20047;-72
2021/03/09 08:00:13;;;;;;;29.15;18.88;;;;;;;3.01;60.74;96756.25;4956946;28;20375;-71
2021/03/09 08:02:54;;;;;;;31.08;19.70;;;;;;;3.32;58.93;96748.69;4953921;28;20114;-71
2021/03/09 08:05:27;;;;;;;30.38;19.10;;;;;;;3.54;59.20;96743.50;4951261;28;20058;-71
2021/03/09 08:07:54;;;;;;;30.48;18.58;;;;;;;4.05;58.01;96747.94;4956434;28;20031;-71
2021/03/09 08:10:29;;;;;;;29.63;18.90;;;;;;;3.41;59.85;96743.66;4952753;28;20481;-72
2021/03/09 08:13:07;;;;;;;26.30;17.77;;;;;;;4.31;57.73;96742.38;4951542;28;20728;-72
2021/03/09 08:15:35;;;;;;;26.20;17.90;;;;;;;4.17;56.70;96734.97;4953528;28;20671;-71
2021/03/09 08:18:16;;;;;;;28.15;18.13;;;;;;;4.62;56.05;96738.06;4952038;28;20054;-71
2021/03/09 08:20:47;;;;;;;28.77;17.85;;;;;;;4.59;55.60;96740.91;4948923;28;20047;-72
2021/03/09 08:23:32;;;;;;;21.92;16.50;;;;;;;4.93;54.76;96739.78;4954621;28;20054;-71
2021/03/09 08:26:03;;;;;;;25.70;17.65;;;;;;;4.67;55.25;96741.03;4951938;28;20172;-71
2021/03/09 08:28:37;;;;;;;24.10;16.70;;;;;;;5.96;52.12;96734.19;4951906;28;20050;-72
2021/03/09 08:31:10;;;;;;;22.13;16.58;;;;;;;5.41;52.69;96731.31;4936789;28;20078;-71
2021/03/09 08:33:46;;;;;;;20.20;15.25;;;;;;;5.36;51.13;96734.31;4948755;28;20054;-71
2021/03/09 08:36:24;;;;;;;23.63;17.55;;;;;;;5.14;52.66;96734.53;4952798;28;20066;-71
2021/03/09 08:39:17;;;;;;;;;;;;;;;5.47;52.98;96734.16;4952147;28;20477;-71
2021/03/09 08:41:43;;;;;;;21.90;16.63;;;;;;;6.37;49.29;96729.63;4950631;28;19930;-71
2021/03/09 08:47:07;;;;;;;18.48;16.10;;;;;;;7.30;49.07;96734.75;4950088;28;20044;-71
2021/03/09 08:49:37;;;;;;;23.27;16.98;;;;;;;8.05;47.52;96722.31;4954538;28;20061;-71
2021/03/09 08:52:16;;;;;;;26.35;17.48;;;;;;;7.08;49.71;96729.03;4954734;28;20094;-71
2021/03/09 08:54:43;;;;;;;25.02;16.67;;;;;;;7.21;46.39;96727.88;4953804;28;20685;-71
2021/03/09 08:57:23;;;;;;;19.33;16.73;;;;;;;8.34;44.10;96729.78;4933383;28;20404;-70
2021/03/09 08:59:59;;;;;;;21.30;16.30;;;;;;;8.44;44.87;96713.34;4948526;28;20053;-70
2021/03/09 09:02:27;;;;;;;22.15;16.60;;;;;;;8.71;45.40;96718.34;4948795;28;20052;-70
2021/03/09 09:04:56;;;;;;;19.23;16.63;;;;;;;8.01;44.55;96713.19;4923392;28;20052;-70
2021/03/09 09:07:36;;;;;;;27.63;19.33;;;;;;;8.00;45.14;96721.13;4956902;28;20047;-69
2021/03/09 09:10:06;;;;;;;22.73;16.23;;;;;;;7.87;47.59;96724.09;4950985;28;20051;-70
2021/03/09 09:12:35;;;;;;;19.55;16.10;;;;;;;9.25;44.72;96710.25;4952449;28;20061;-70
2021/03/09 09:15:27;;;;;;;18.73;16.13;;;;;;;9.94;39.93;96715.97;4952256;28;20081;-70
2021/03/09 09:18:02;;;;;;;19.60;16.02;;;;;;;13.48;34.87;96701.25;4932793;28;20070;-74
2021/03/09 09:20:47;;;;;;;21.80;16.92;;;;;;;14.69;33.71;96707.25;4948392;28;20055;-70
2021/03/09 09:23:18;;;;;;;20.33;16.90;;;;;;;16.49;29.90;96699.75;4932844;28;20058;-69
2021/03/09 09:25:58;;;;;;;20.05;16.65;;;;;;;16.28;29.13;96696.31;4943165;28;20048;-70
2021/03/09 09:28:25;;;;;;;21.00;18.15;;;;;;;16.19;29.47;96699.34;4915992;28;20054;-70
2021/03/09 09:30:53;;;;;;;20.52;17.70;;;;;;;17.34;28.60;96690.97;4936941;28;20051;-72
2021/03/09 09:33:31;;;;;;;18.73;16.45;;;;;;;17.22;29.58;96691.63;4950510;28;20058;-70
2021/03/09 09:35:58;;;;;;;19.20;16.80;;;;;;;16.12;30.92;96693.31;4951813;28;20039;-71
2021/03/09 09:38:24;;;;;;;19.38;16.08;;;;;;;17.29;28.11;96694.22;4936013;28;20051;-69
2021/03/09 09:40:56;;;;;;;19.45;16.25;;;;;;;18.24;25.97;96693.41;4956184;28;20498;-69
2021/03/09 09:43:24;;;;;;;24.42;17.98;;;;;;;16.20;29.92;96693.09;4950999;28;20439;-71
2021/03/09 09:45:55;;;;;;;19.00;17.00;;;;;;;17.72;27.64;96690.94;4950911;28;20047;-71
2021/03/09 09:48:25;;;;;;;19.33;16.98;;;;;;;14.62;31.46;96696.72;4953984;28;20041;-70
2021/03/09 09:51:03;;;;;;;24.98;17.05;;;;;;;17.82;28.15;96686.03;4955086;28;20063;-70
2021/03/09 09:53:43;;;;;;;19.50;16.92;;;;;;;19.06;25.77;96693.19;4954900;28;20253;-70
2021/03/09 09:56:10;;;;;;;29.17;16.80;;;;;;;19.43;26.04;96701.03;4955003;28;20050;-71
2021/03/09 09:58:46;;;;;;;23.73;16.48;;;;;;;18.76;26.94;96688.63;4950942;28;20514;-70
2021/03/09 10:01:14;;;;;;;18.30;16.42;;;;;;;19.07;24.91;96690.34;4960524;28;20090;-71
2021/03/09 10:03:59;;;;;;;18.35;16.45;;;;;;;21.14;23.28;96687.00;4956621;28;20051;-70
2021/03/09 10:06:29;;;;;;;19.02;16.20;;;;;;;22.80;22.45;96690.25;4933919;28;20044;-71
2021/03/09 10:09:28;;;;;;;17.02;15.20;;;;;;;20.49;23.37;96683.53;4961119;28;20077;-70
2021/03/09 10:11:57;;;;;;;17.35;15.52;;;;;;;19.85;24.16;96682.56;4941225;28;20050;-70
2021/03/09 10:14:27;;;;;;;19.65;15.40;;;;;;;21.15;23.64;96673.53;4937707;28;20052;-70
2021/03/09 10:16:54;;;;;;;23.10;15.75;;;;;;;23.87;20.20;96677.34;4938005;28;20624;-70
2021/03/09 10:19:22;;;;;;;18.95;15.25;;;;;;;22.68;22.17;96678.97;4952014;28;20098;-70
2021/03/09 10:21:51;;;;;;;18.17;15.07;;;;;;;21.91;21.40;96670.66;4954509;28;20047;-70
2021/03/09 10:24:31;;;;;;;21.05;16.08;;;;;;;23.28;20.49;96671.97;4937600;28;20130;-71
2021/03/09 10:26:59;;;;;;;16.77;14.23;;;;;;;24.20;20.62;96677.34;4947292;28;20057;-70
2021/03/09 10:29:28;;;;;;;18.35;15.85;;;;;;;21.61;22.07;96663.03;4934923;28;20085;-68
2021/03/09 10:31:55;;;;;;;18.40;15.52;;;;;;;22.41;20.68;96663.72;4935406;28;20047;-68
2021/03/09 10:34:39;;;;;;;14.80;13.23;;;;;;;23.43;19.77;96664.19;4953243;28;20731;-70
2021/03/09 10:37:16;;;;;;;16.40;14.30;;;;;;;24.94;18.50;96661.28;4951151;28;20086;-70
2021/03/09 10:39:57;;;;;;;18.85;14.13;;;;;;;21.58;21.17;96668.78;4953201;28;20130;-69
2021/03/09 10:42:36;;;;;;;15.75;13.73;;;;;;;24.03;19.66;96654.38;4949077;28;20054;-69
2021/03/09 10:45:29;;;;;;;14.65;12.30;;;;;;;26.23;17.59;96658.84;4954573;28;20214;-70
2021/03/09 10:47:57;;;;;;;23.52;13.88;;;;;;;23.47;19.45;96664.47;4948416;28;20051;-69
2021/03/09 10:50:26;;;;;;;16.60;13.73;;;;;;;23.27;19.85;96660.56;4953257;28;20071;-70
2021/03/09 10:52:52;;;;;;;14.68;13.02;;;;;;;22.07;20.47;96649.69;4956364;28;20051;-69
2021/03/09 10:55:18;;;;;;;16.15;12.98;;;;;;;23.63;20.60;96660.13;4948616;28;20047;-69
2021/03/09 10:57:45;;;;;;;18.90;13.82;;;;;;;25.72;19.12;96649.75;4937136;28;20050;-70
2021/03/09 11:00:13;;;;;;;13.60;11.00;;;;;;;25.00;17.84;96646.13;4953789;28;20050;-70
2021/03/09 11:02:40;;;;;;;13.77;12.38;;;;;;;26.59;17.64;96640.91;4952596;28;20115;-71
2021/03/09 11:05:08;;;;;;;38.95;31.45;;;;;;;25.50;19.28;96641.19;4934829;28;20150;-74
2021/03/09 11:07:34;;;;;;;11.57;10.48;;;;;;;27.10;15.52;96650.59;4951218;28;20061;-71
2021/03/09 11:10:01;;;;;;;15.00;12.45;;;;;;;28.69;15.51;96646.69;4954084;28;20504;-71
2021/03/09 11:12:27;;;;;;;12.10;10.90;;;;;;;26.97;16.01;96642.09;4937648;28;20082;-71
2021/03/09 11:14:53;;;;;;;12.97;11.67;;;;;;;28.02;16.01;96644.63;4948212;28;20075;-70
2021/03/09 11:17:19;;;;;;;14.23;12.37;;;;;;;27.66;15.32;96644.91;4949259;28;20045;-69
2021/03/09 11:19:45;;;;;;;12.25;11.00;;;;;;;28.01;16.54;96640.38;4938655;28;20325;-71
2021/03/09 11:22:12;;;;;;;;;;;;;;;23.68;18.72;96642.34;4953116;28;20447;-70
2021/03/09 11:24:38;;;;;;;10.10;9.02;;;;;;;24.54;17.85;96633.44;4957675;28;20013;-69
2021/03/09 11:27:05;;;;;;;14.50;12.07;;;;;;;23.81;19.61;96630.53;4930941;28;20055;-69
2021/03/09 11:29:33;;;;;;;11.10;10.05;;;;;;;23.14;19.12;96627.25;4940683;28;20046;-70
2021/03/09 11:31:59;;;;;;;10.68;7.30;;;;;;;15.95;24.15;96629.91;4951826;28;20812;-70
2021/03/09 11:34:27;;;;;;;17.25;14.02;;;;;;;15.49;26.16;96639.34;4952209;28;20055;-70
2021/03/09 11:36:54;;;;;;;9.30;7.45;;;;;;;23.68;18.35;96629.06;4940061;28;20406;-69
2021/03/09 11:39:20;;;;;;;11.43;10.23;;;;;;;24.37;17.91;96624.78;4950008;28;20046;-70